sensor_id;sensor_type;location;lat;lon;timestamp;temperature;humidity
20174;DHT22;10246;50.620;7.232;2023-01-28T00:00:10;4.70;4.00
20174;DHT22;10246;50.620;7.232;2023-01-28T00:02:38;4.70;3.70
20174;DHT22;10246;50.620;7.232;2023-01-28T00:05:06;4.80;3.70
20174;DHT22;10246;50.620;7.232;2023-01-28T00:07:33;4.70;3.60
20174;DHT22;10246;50.620;7.232;2023-01-28T00:09:59;4.70;3.00
20174;DHT22;10246;50.620;7.232;2023-01-28T00:12:26;4.70;3.80
20174;DHT22;10246;50.620;7.232;2023-01-28T00:14:54;4.60;5.00
20174;DHT22;10246;50.620;7.232;2023-01-28T00:17:20;4.60;4.80
20174;DHT22;10246;50.620;7.232;2023-01-28T00:19:48;4.70;4.20
20174;DHT22;10246;50.620;7.232;2023-01-28T00:22:15;4.70;3.30
20174;DHT22;10246;50.620;7.232;2023-01-28T00:24:42;4.70;3.60
20174;DHT22;10246;50.620;7.232;2023-01-28T00:27:09;4.60;3.90
20174;DHT22;10246;50.620;7.232;2023-01-28T00:29:35;4.60;3.70
20174;DHT22;10246;50.620;7.232;2023-01-28T00:32:03;4.70;3.30
20174;DHT22;10246;50.620;7.232;2023-01-28T00:34:30;4.70;3.30
20174;DHT22;10246;50.620;7.232;2023-01-28T00:36:58;4.70;2.90
20174;DHT22;10246;50.620;7.232;2023-01-28T00:39:27;4.70;2.60
20174;DHT22;10246;50.620;7.232;2023-01-28T00:41:54;4.70;3.00
20174;DHT22;10246;50.620;7.232;2023-01-28T00:44:20;4.60;2.60
20174;DHT22;10246;50.620;7.232;2023-01-28T00:46:48;4.60;3.30
20174;DHT22;10246;50.620;7.232;2023-01-28T00:49:14;4.60;2.90
20174;DHT22;10246;50.620;7.232;2023-01-28T00:51:41;4.60;2.70
20174;DHT22;10246;50.620;7.232;2023-01-28T00:54:10;4.50;3.30
20174;DHT22;10246;50.620;7.232;2023-01-28T00:56:37;4.60;4.00
20174;DHT22;10246;50.620;7.232;2023-01-28T00:59:04;4.60;3.30
20174;DHT22;10246;50.620;7.232;2023-01-28T01:01:31;4.50;3.70
20174;DHT22;10246;50.620;7.232;2023-01-28T01:03:58;4.60;3.10
20174;DHT22;10246;50.620;7.232;2023-01-28T01:06:29;4.60;3.10
20174;DHT22;10246;50.620;7.232;2023-01-28T01:08:56;4.70;2.50
20174;DHT22;10246;50.620;7.232;2023-01-28T01:11:24;4.60;2.90
20174;DHT22;10246;50.620;7.232;2023-01-28T01:13:52;4.50;3.60
20174;DHT22;10246;50.620;7.232;2023-01-28T01:16:22;4.50;3.50
20174;DHT22;10246;50.620;7.232;2023-01-28T01:18:50;4.60;3.40
20174;DHT22;10246;50.620;7.232;2023-01-28T01:21:18;4.60;2.70
20174;DHT22;10246;50.620;7.232;2023-01-28T01:23:46;4.60;2.90
20174;DHT22;10246;50.620;7.232;2023-01-28T01:26:13;4.50;3.40
20174;DHT22;10246;50.620;7.232;2023-01-28T01:28:42;4.50;4.60
20174;DHT22;10246;50.620;7.232;2023-01-28T01:31:11;4.50;4.70
20174;DHT22;10246;50.620;7.232;2023-01-28T01:33:40;4.50;4.20
20174;DHT22;10246;50.620;7.232;2023-01-28T01:36:07;4.60;4.60
20174;DHT22;10246;50.620;7.232;2023-01-28T01:38:34;4.60;3.60
20174;DHT22;10246;50.620;7.232;2023-01-28T01:41:02;4.50;4.10
20174;DHT22;10246;50.620;7.232;2023-01-28T01:43:47;4.40;4.70
20174;DHT22;10246;50.620;7.232;2023-01-28T01:46:15;4.50;4.70
20174;DHT22;10246;50.620;7.232;2023-01-28T01:48:43;4.50;4.00
20174;DHT22;10246;50.620;7.232;2023-01-28T01:51:11;4.50;3.50
20174;DHT22;10246;50.620;7.232;2023-01-28T01:53:44;4.60;2.80
20174;DHT22;10246;50.620;7.232;2023-01-28T01:56:14;4.50;2.70
20174;DHT22;10246;50.620;7.232;2023-01-28T01:58:46;4.50;2.60
20174;DHT22;10246;50.620;7.232;2023-01-28T02:01:16;4.60;2.30
20174;DHT22;10246;50.620;7.232;2023-01-28T02:03:49;4.50;2.90
20174;DHT22;10246;50.620;7.232;2023-01-28T02:06:19;4.40;3.30
20174;DHT22;10246;50.620;7.232;2023-01-28T02:08:46;4.50;3.00
20174;DHT22;10246;50.620;7.232;2023-01-28T02:11:13;4.50;2.90
20174;DHT22;10246;50.620;7.232;2023-01-28T02:13:43;4.40;2.90
20174;DHT22;10246;50.620;7.232;2023-01-28T02:16:14;4.40;3.30
20174;DHT22;10246;50.620;7.232;2023-01-28T02:18:41;4.40;3.50
20174;DHT22;10246;50.620;7.232;2023-01-28T02:21:24;4.50;3.50
20174;DHT22;10246;50.620;7.232;2023-01-28T02:24:13;4.50;3.40
20174;DHT22;10246;50.620;7.232;2023-01-28T02:27:09;4.50;3.40
20174;DHT22;10246;50.620;7.232;2023-01-28T02:29:45;4.50;3.60
20174;DHT22;10246;50.620;7.232;2023-01-28T02:32:18;4.40;4.00
20174;DHT22;10246;50.620;7.232;2023-01-28T02:34:50;4.50;3.40
20174;DHT22;10246;50.620;7.232;2023-01-28T02:37:21;4.50;3.50
20174;DHT22;10246;50.620;7.232;2023-01-28T02:39:52;4.40;3.60
20174;DHT22;10246;50.620;7.232;2023-01-28T02:42:24;4.50;3.70
20174;DHT22;10246;50.620;7.232;2023-01-28T02:44:53;4.50;3.30
20174;DHT22;10246;50.620;7.232;2023-01-28T02:47:20;4.50;3.10
20174;DHT22;10246;50.620;7.232;2023-01-28T02:50:08;4.40;2.50
20174;DHT22;10246;50.620;7.232;2023-01-28T02:52:46;4.30;2.80
20174;DHT22;10246;50.620;7.232;2023-01-28T02:55:38;4.20;3.10
20174;DHT22;10246;50.620;7.232;2023-01-28T02:58:13;4.20;3.40
20174;DHT22;10246;50.620;7.232;2023-01-28T03:00:49;4.10;3.00
20174;DHT22;10246;50.620;7.232;2023-01-28T03:03:22;4.00;3.30
20174;DHT22;10246;50.620;7.232;2023-01-28T03:05:54;4.00;3.50
20174;DHT22;10246;50.620;7.232;2023-01-28T03:08:35;3.90;3.80
20174;DHT22;10246;50.620;7.232;2023-01-28T03:11:21;3.90;4.20
20174;DHT22;10246;50.620;7.232;2023-01-28T03:14:06;3.90;4.70
20174;DHT22;10246;50.620;7.232;2023-01-28T03:16:54;3.80;5.10
20174;DHT22;10246;50.620;7.232;2023-01-28T03:19:40;3.90;4.70
20174;DHT22;10246;50.620;7.232;2023-01-28T03:22:27;3.90;5.10
20174;DHT22;10246;50.620;7.232;2023-01-28T03:25:13;3.90;6.00
20174;DHT22;10246;50.620;7.232;2023-01-28T03:28:01;3.90;5.40
20174;DHT22;10246;50.620;7.232;2023-01-28T03:30:50;4.00;5.30
20174;DHT22;10246;50.620;7.232;2023-01-28T03:33:42;3.90;5.60
20174;DHT22;10246;50.620;7.232;2023-01-28T03:36:27;3.90;5.00
20174;DHT22;10246;50.620;7.232;2023-01-28T03:39:12;4.00;5.30
20174;DHT22;10246;50.620;7.232;2023-01-28T03:41:39;4.00;4.80
20174;DHT22;10246;50.620;7.232;2023-01-28T03:44:06;3.90;4.10
20174;DHT22;10246;50.620;7.232;2023-01-28T03:46:51;3.80;4.70
20174;DHT22;10246;50.620;7.232;2023-01-28T03:49:19;3.90;4.80
20174;DHT22;10246;50.620;7.232;2023-01-28T03:51:45;3.90;3.90
20174;DHT22;10246;50.620;7.232;2023-01-28T03:54:12;3.80;3.20
20174;DHT22;10246;50.620;7.232;2023-01-28T03:56:39;3.70;3.50
20174;DHT22;10246;50.620;7.232;2023-01-28T03:59:06;3.60;4.40
20174;DHT22;10246;50.620;7.232;2023-01-28T04:01:33;3.60;4.00
20174;DHT22;10246;50.620;7.232;2023-01-28T04:04:00;3.50;3.90
20174;DHT22;10246;50.620;7.232;2023-01-28T04:06:29;3.50;4.10
20174;DHT22;10246;50.620;7.232;2023-01-28T04:08:55;3.50;3.90
20174;DHT22;10246;50.620;7.232;2023-01-28T04:11:24;3.40;4.10
20174;DHT22;10246;50.620;7.232;2023-01-28T04:13:51;3.40;4.30
20174;DHT22;10246;50.620;7.232;2023-01-28T04:16:18;3.30;4.50
20174;DHT22;10246;50.620;7.232;2023-01-28T04:18:45;3.30;4.40
20174;DHT22;10246;50.620;7.232;2023-01-28T04:21:14;3.30;4.40
20174;DHT22;10246;50.620;7.232;2023-01-28T04:23:42;3.30;4.40
20174;DHT22;10246;50.620;7.232;2023-01-28T04:26:08;3.30;4.60
20174;DHT22;10246;50.620;7.232;2023-01-28T04:28:35;3.20;5.20
20174;DHT22;10246;50.620;7.232;2023-01-28T04:31:02;3.30;5.60
20174;DHT22;10246;50.620;7.232;2023-01-28T04:33:28;3.40;5.20
20174;DHT22;10246;50.620;7.232;2023-01-28T04:35:55;3.30;4.40
20174;DHT22;10246;50.620;7.232;2023-01-28T04:38:22;3.30;4.40
20174;DHT22;10246;50.620;7.232;2023-01-28T04:40:51;3.40;3.90
20174;DHT22;10246;50.620;7.232;2023-01-28T04:43:19;3.40;3.70
20174;DHT22;10246;50.620;7.232;2023-01-28T04:45:46;3.20;4.70
20174;DHT22;10246;50.620;7.232;2023-01-28T04:48:13;3.20;4.70
20174;DHT22;10246;50.620;7.232;2023-01-28T04:50:41;3.20;4.80
20174;DHT22;10246;50.620;7.232;2023-01-28T04:53:08;3.20;4.90
20174;DHT22;10246;50.620;7.232;2023-01-28T04:55:35;3.10;5.50
20174;DHT22;10246;50.620;7.232;2023-01-28T04:58:04;3.10;5.70
20174;DHT22;10246;50.620;7.232;2023-01-28T05:00:30;3.10;5.20
20174;DHT22;10246;50.620;7.232;2023-01-28T05:02:57;3.00;5.90
20174;DHT22;10246;50.620;7.232;2023-01-28T05:05:24;3.00;5.90
20174;DHT22;10246;50.620;7.232;2023-01-28T05:07:52;3.00;5.40
20174;DHT22;10246;50.620;7.232;2023-01-28T05:10:19;3.00;5.40
20174;DHT22;10246;50.620;7.232;2023-01-28T05:12:46;2.90;6.30
20174;DHT22;10246;50.620;7.232;2023-01-28T05:15:15;2.90;6.10
20174;DHT22;10246;50.620;7.232;2023-01-28T05:17:43;3.00;5.70
20174;DHT22;10246;50.620;7.232;2023-01-28T05:20:11;3.00;5.50
20174;DHT22;10246;50.620;7.232;2023-01-28T05:22:38;2.90;5.60
20174;DHT22;10246;50.620;7.232;2023-01-28T05:25:06;2.80;5.40
20174;DHT22;10246;50.620;7.232;2023-01-28T05:27:35;2.80;6.00
20174;DHT22;10246;50.620;7.232;2023-01-28T05:30:01;2.70;6.40
20174;DHT22;10246;50.620;7.232;2023-01-28T05:32:30;2.70;6.20
20174;DHT22;10246;50.620;7.232;2023-01-28T05:34:57;2.70;6.20
20174;DHT22;10246;50.620;7.232;2023-01-28T05:37:24;2.70;6.40
20174;DHT22;10246;50.620;7.232;2023-01-28T05:39:51;2.70;6.80
20174;DHT22;10246;50.620;7.232;2023-01-28T05:42:18;2.60;7.30
20174;DHT22;10246;50.620;7.232;2023-01-28T05:44:47;2.70;6.80
20174;DHT22;10246;50.620;7.232;2023-01-28T05:47:13;2.60;6.90
20174;DHT22;10246;50.620;7.232;2023-01-28T05:49:41;2.60;7.20
20174;DHT22;10246;50.620;7.232;2023-01-28T05:52:08;2.60;7.30
20174;DHT22;10246;50.620;7.232;2023-01-28T05:54:35;2.70;6.50
20174;DHT22;10246;50.620;7.232;2023-01-28T05:57:02;2.60;6.80
20174;DHT22;10246;50.620;7.232;2023-01-28T05:59:29;2.60;7.60
20174;DHT22;10246;50.620;7.232;2023-01-28T06:01:56;2.50;7.70
20174;DHT22;10246;50.620;7.232;2023-01-28T06:04:23;2.50;7.80
20174;DHT22;10246;50.620;7.232;2023-01-28T06:06:51;2.50;7.60
20174;DHT22;10246;50.620;7.232;2023-01-28T06:09:18;2.50;8.00
20174;DHT22;10246;50.620;7.232;2023-01-28T06:11:45;2.50;8.50
20174;DHT22;10246;50.620;7.232;2023-01-28T06:14:12;2.60;8.50
20174;DHT22;10246;50.620;7.232;2023-01-28T06:16:38;2.60;8.60
20174;DHT22;10246;50.620;7.232;2023-01-28T06:19:05;2.60;7.70
20174;DHT22;10246;50.620;7.232;2023-01-28T06:21:32;2.60;7.60
20174;DHT22;10246;50.620;7.232;2023-01-28T06:24:00;2.60;8.10
20174;DHT22;10246;50.620;7.232;2023-01-28T06:26:27;2.70;7.40
20174;DHT22;10246;50.620;7.232;2023-01-28T06:28:54;2.70;7.10
20174;DHT22;10246;50.620;7.232;2023-01-28T06:31:21;2.70;7.10
20174;DHT22;10246;50.620;7.232;2023-01-28T06:33:47;2.70;7.20
20174;DHT22;10246;50.620;7.232;2023-01-28T06:36:14;2.80;6.60
20174;DHT22;10246;50.620;7.232;2023-01-28T06:38:41;2.70;6.20
20174;DHT22;10246;50.620;7.232;2023-01-28T06:41:09;2.70;5.70
20174;DHT22;10246;50.620;7.232;2023-01-28T06:43:35;2.70;6.30
20174;DHT22;10246;50.620;7.232;2023-01-28T06:46:03;2.70;6.00
20174;DHT22;10246;50.620;7.232;2023-01-28T06:48:29;2.70;6.20
20174;DHT22;10246;50.620;7.232;2023-01-28T06:50:56;2.70;6.30
20174;DHT22;10246;50.620;7.232;2023-01-28T06:53:23;2.70;6.00
20174;DHT22;10246;50.620;7.232;2023-01-28T06:55:50;2.80;4.50
20174;DHT22;10246;50.620;7.232;2023-01-28T06:58:18;2.80;3.90
20174;DHT22;10246;50.620;7.232;2023-01-28T07:00:45;2.80;3.70
20174;DHT22;10246;50.620;7.232;2023-01-28T07:03:11;2.70;4.00
20174;DHT22;10246;50.620;7.232;2023-01-28T07:05:38;2.70;4.70
20174;DHT22;10246;50.620;7.232;2023-01-28T07:08:05;2.70;4.70
20174;DHT22;10246;50.620;7.232;2023-01-28T07:10:32;2.60;5.70
20174;DHT22;10246;50.620;7.232;2023-01-28T07:12:59;2.60;5.30
20174;DHT22;10246;50.620;7.232;2023-01-28T07:15:27;2.70;5.30
20174;DHT22;10246;50.620;7.232;2023-01-28T07:17:54;2.70;5.20
20174;DHT22;10246;50.620;7.232;2023-01-28T07:20:21;2.70;5.20
20174;DHT22;10246;50.620;7.232;2023-01-28T07:22:47;2.60;5.60
20174;DHT22;10246;50.620;7.232;2023-01-28T07:25:14;2.60;6.40
20174;DHT22;10246;50.620;7.232;2023-01-28T07:27:46;2.60;6.50
20174;DHT22;10246;50.620;7.232;2023-01-28T07:30:14;2.70;5.80
20174;DHT22;10246;50.620;7.232;2023-01-28T07:32:42;2.70;5.40
20174;DHT22;10246;50.620;7.232;2023-01-28T07:35:09;2.70;5.00
20174;DHT22;10246;50.620;7.232;2023-01-28T07:37:36;2.70;5.80
20174;DHT22;10246;50.620;7.232;2023-01-28T07:40:03;2.80;6.80
20174;DHT22;10246;50.620;7.232;2023-01-28T07:42:30;2.80;6.60
20174;DHT22;10246;50.620;7.232;2023-01-28T07:44:57;2.80;6.40
20174;DHT22;10246;50.620;7.232;2023-01-28T07:47:24;2.90;5.60
20174;DHT22;10246;50.620;7.232;2023-01-28T07:49:52;2.90;4.10
20174;DHT22;10246;50.620;7.232;2023-01-28T07:52:18;2.90;3.60
20174;DHT22;10246;50.620;7.232;2023-01-28T07:54:45;2.80;4.50
20174;DHT22;10246;50.620;7.232;2023-01-28T07:57:12;2.90;5.20
20174;DHT22;10246;50.620;7.232;2023-01-28T07:59:39;2.90;5.40
20174;DHT22;10246;50.620;7.232;2023-01-28T08:02:09;3.00;4.30
20174;DHT22;10246;50.620;7.232;2023-01-28T08:04:36;3.00;4.30
20174;DHT22;10246;50.620;7.232;2023-01-28T08:07:06;2.90;4.70
20174;DHT22;10246;50.620;7.232;2023-01-28T08:09:32;3.00;4.10
20174;DHT22;10246;50.620;7.232;2023-01-28T08:12:00;2.90;4.20
20174;DHT22;10246;50.620;7.232;2023-01-28T08:14:28;2.90;4.40
20174;DHT22;10246;50.620;7.232;2023-01-28T08:16:54;3.00;3.70
20174;DHT22;10246;50.620;7.232;2023-01-28T08:19:22;3.00;4.30
20174;DHT22;10246;50.620;7.232;2023-01-28T08:21:48;3.00;5.00
20174;DHT22;10246;50.620;7.232;2023-01-28T08:24:17;3.00;4.20
20174;DHT22;10246;50.620;7.232;2023-01-28T08:26:43;3.00;4.40
20174;DHT22;10246;50.620;7.232;2023-01-28T08:29:13;3.10;2.80
20174;DHT22;10246;50.620;7.232;2023-01-28T08:31:40;3.20;1.80
20174;DHT22;10246;50.620;7.232;2023-01-28T08:34:06;3.10;1.80
20174;DHT22;10246;50.620;7.232;2023-01-28T08:36:33;3.00;3.20
20174;DHT22;10246;50.620;7.232;2023-01-28T08:39:00;3.00;3.40
20174;DHT22;10246;50.620;7.232;2023-01-28T08:41:29;3.10;1.80
20174;DHT22;10246;50.620;7.232;2023-01-28T08:43:56;3.20;1.30
20174;DHT22;10246;50.620;7.232;2023-01-28T08:46:23;3.10;1.40
20174;DHT22;10246;50.620;7.232;2023-01-28T08:48:50;3.10;1.10
20174;DHT22;10246;50.620;7.232;2023-01-28T08:51:17;3.10;1.70
20174;DHT22;10246;50.620;7.232;2023-01-28T08:53:43;3.10;1.60
20174;DHT22;10246;50.620;7.232;2023-01-28T08:56:10;3.20;1.70
20174;DHT22;10246;50.620;7.232;2023-01-28T08:58:38;3.20;2.80
20174;DHT22;10246;50.620;7.232;2023-01-28T09:01:06;3.30;1.10
20174;DHT22;10246;50.620;7.232;2023-01-28T09:03:32;3.40;1.10
20174;DHT22;10246;50.620;7.232;2023-01-28T09:06:00;3.40;1.00
20174;DHT22;10246;50.620;7.232;2023-01-28T09:08:27;3.50;1.00
20174;DHT22;10246;50.620;7.232;2023-01-28T09:10:54;3.50;1.00
20174;DHT22;10246;50.620;7.232;2023-01-28T09:13:22;3.40;1.00
20174;DHT22;10246;50.620;7.232;2023-01-28T09:15:50;3.30;1.00
20174;DHT22;10246;50.620;7.232;2023-01-28T09:18:18;3.40;1.00
20174;DHT22;10246;50.620;7.232;2023-01-28T09:20:45;3.40;1.00
20174;DHT22;10246;50.620;7.232;2023-01-28T09:23:12;3.50;1.00
20174;DHT22;10246;50.620;7.232;2023-01-28T09:25:39;3.40;1.00
20174;DHT22;10246;50.620;7.232;2023-01-28T09:28:06;3.40;1.00
20174;DHT22;10246;50.620;7.232;2023-01-28T09:30:33;3.40;1.00
20174;DHT22;10246;50.620;7.232;2023-01-28T09:33:02;3.60;1.00
20174;DHT22;10246;50.620;7.232;2023-01-28T09:35:29;3.60;1.00
20174;DHT22;10246;50.620;7.232;2023-01-28T09:37:56;3.50;1.00
20174;DHT22;10246;50.620;7.232;2023-01-28T09:40:29;3.50;1.00
20174;DHT22;10246;50.620;7.232;2023-01-28T09:43:13;3.50;1.00
20174;DHT22;10246;50.620;7.232;2023-01-28T09:45:46;3.50;1.00
20174;DHT22;10246;50.620;7.232;2023-01-28T09:48:16;3.50;1.00
20174;DHT22;10246;50.620;7.232;2023-01-28T09:50:48;3.40;1.00
20174;DHT22;10246;50.620;7.232;2023-01-28T09:53:19;3.40;1.00
20174;DHT22;10246;50.620;7.232;2023-01-28T09:55:48;3.40;1.00
20174;DHT22;10246;50.620;7.232;2023-01-28T09:58:16;3.40;1.00
20174;DHT22;10246;50.620;7.232;2023-01-28T10:00:49;3.40;1.00
20174;DHT22;10246;50.620;7.232;2023-01-28T10:03:31;3.40;1.00
20174;DHT22;10246;50.620;7.232;2023-01-28T10:06:10;3.30;1.00
20174;DHT22;10246;50.620;7.232;2023-01-28T10:09:03;3.40;1.00
20174;DHT22;10246;50.620;7.232;2023-01-28T10:11:47;3.40;1.00
20174;DHT22;10246;50.620;7.232;2023-01-28T10:14:24;3.40;1.00
20174;DHT22;10246;50.620;7.232;2023-01-28T10:16:58;3.40;1.00
20174;DHT22;10246;50.620;7.232;2023-01-28T10:19:31;3.50;1.00
20174;DHT22;10246;50.620;7.232;2023-01-28T10:22:02;3.60;1.00
20174;DHT22;10246;50.620;7.232;2023-01-28T10:24:33;3.60;1.00
20174;DHT22;10246;50.620;7.232;2023-01-28T10:27:01;3.60;1.00
20174;DHT22;10246;50.620;7.232;2023-01-28T10:29:31;3.60;1.00
20174;DHT22;10246;50.620;7.232;2023-01-28T10:32:15;3.50;1.00
20174;DHT22;10246;50.620;7.232;2023-01-28T10:34:44;3.40;1.00
20174;DHT22;10246;50.620;7.232;2023-01-28T10:37:12;3.40;1.00
20174;DHT22;10246;50.620;7.232;2023-01-28T10:39:40;3.40;1.00
20174;DHT22;10246;50.620;7.232;2023-01-28T10:42:16;3.40;1.00
20174;DHT22;10246;50.620;7.232;2023-01-28T10:44:46;3.50;1.00
20174;DHT22;10246;50.620;7.232;2023-01-28T10:47:19;3.50;1.00
20174;DHT22;10246;50.620;7.232;2023-01-28T10:49:53;3.40;1.00
20174;DHT22;10246;50.620;7.232;2023-01-28T10:52:21;3.50;1.00
20174;DHT22;10246;50.620;7.232;2023-01-28T10:54:58;3.50;1.00
20174;DHT22;10246;50.620;7.232;2023-01-28T10:57:25;3.60;1.00
20174;DHT22;10246;50.620;7.232;2023-01-28T10:59:52;3.60;1.00
20174;DHT22;10246;50.620;7.232;2023-01-28T11:02:26;3.60;1.00
20174;DHT22;10246;50.620;7.232;2023-01-28T11:05:04;3.50;1.00
20174;DHT22;10246;50.620;7.232;2023-01-28T11:07:32;3.50;1.00
20174;DHT22;10246;50.620;7.232;2023-01-28T11:09:59;3.40;1.00
20174;DHT22;10246;50.620;7.232;2023-01-28T11:12:26;3.40;1.00
20174;DHT22;10246;50.620;7.232;2023-01-28T11:14:56;3.40;1.00
20174;DHT22;10246;50.620;7.232;2023-01-28T11:17:24;3.40;1.00
20174;DHT22;10246;50.620;7.232;2023-01-28T11:19:54;3.40;1.00
20174;DHT22;10246;50.620;7.232;2023-01-28T11:22:29;3.40;1.00
20174;DHT22;10246;50.620;7.232;2023-01-28T11:24:57;3.40;1.00
20174;DHT22;10246;50.620;7.232;2023-01-28T11:27:28;3.50;1.00
20174;DHT22;10246;50.620;7.232;2023-01-28T11:29:56;3.50;1.00
20174;DHT22;10246;50.620;7.232;2023-01-28T11:32:27;3.60;1.00
20174;DHT22;10246;50.620;7.232;2023-01-28T11:34:55;3.60;1.00
20174;DHT22;10246;50.620;7.232;2023-01-28T11:37:27;3.50;1.00
20174;DHT22;10246;50.620;7.232;2023-01-28T11:40:14;3.60;1.00
20174;DHT22;10246;50.620;7.232;2023-01-28T11:42:48;3.60;1.00
20174;DHT22;10246;50.620;7.232;2023-01-28T11:45:21;3.60;1.00
20174;DHT22;10246;50.620;7.232;2023-01-28T11:48:02;3.50;1.00
20174;DHT22;10246;50.620;7.232;2023-01-28T11:50:43;3.40;1.00
20174;DHT22;10246;50.620;7.232;2023-01-28T11:53:46;3.50;1.00
20174;DHT22;10246;50.620;7.232;2023-01-28T11:56:41;3.50;1.00
20174;DHT22;10246;50.620;7.232;2023-01-28T11:59:26;3.60;1.00
20174;DHT22;10246;50.620;7.232;2023-01-28T12:02:06;3.60;1.00
20174;DHT22;10246;50.620;7.232;2023-01-28T12:04:48;3.60;1.00
20174;DHT22;10246;50.620;7.232;2023-01-28T12:07:29;3.60;1.00
20174;DHT22;10246;50.620;7.232;2023-01-28T12:10:08;3.60;1.00
20174;DHT22;10246;50.620;7.232;2023-01-28T12:12:53;3.60;1.00
20174;DHT22;10246;50.620;7.232;2023-01-28T12:15:54;3.60;1.00
20174;DHT22;10246;50.620;7.232;2023-01-28T12:21:34;3.50;1.00
20174;DHT22;10246;50.620;7.232;2023-01-28T12:24:13;3.50;1.00
20174;DHT22;10246;50.620;7.232;2023-01-28T12:26:49;3.50;1.00
20174;DHT22;10246;50.620;7.232;2023-01-28T12:29:24;3.60;1.00
20174;DHT22;10246;50.620;7.232;2023-01-28T12:32:02;3.50;1.00
20174;DHT22;10246;50.620;7.232;2023-01-28T12:34:46;3.60;1.00
20174;DHT22;10246;50.620;7.232;2023-01-28T12:37:24;3.50;1.00
20174;DHT22;10246;50.620;7.232;2023-01-28T12:42:53;3.50;1.00
20174;DHT22;10246;50.620;7.232;2023-01-28T12:45:25;3.50;1.00
20174;DHT22;10246;50.620;7.232;2023-01-28T12:48:03;3.60;1.00
20174;DHT22;10246;50.620;7.232;2023-01-28T12:50:36;3.60;1.00
20174;DHT22;10246;50.620;7.232;2023-01-28T12:53:19;3.60;1.00
20174;DHT22;10246;50.620;7.232;2023-01-28T12:55:53;3.60;1.00
20174;DHT22;10246;50.620;7.232;2023-01-28T12:58:38;3.60;1.00
20174;DHT22;10246;50.620;7.232;2023-01-28T13:01:13;3.70;1.00
20174;DHT22;10246;50.620;7.232;2023-01-28T13:03:48;3.70;1.00
20174;DHT22;10246;50.620;7.232;2023-01-28T13:06:23;3.60;1.00
20174;DHT22;10246;50.620;7.232;2023-01-28T13:08:58;3.70;1.00
20174;DHT22;10246;50.620;7.232;2023-01-28T13:11:31;3.60;1.00
20174;DHT22;10246;50.620;7.232;2023-01-28T13:14:03;3.50;1.00
20174;DHT22;10246;50.620;7.232;2023-01-28T13:16:39;3.60;1.00
20174;DHT22;10246;50.620;7.232;2023-01-28T13:19:10;3.50;1.00
20174;DHT22;10246;50.620;7.232;2023-01-28T13:21:50;3.60;1.00
20174;DHT22;10246;50.620;7.232;2023-01-28T13:24:23;3.60;1.00
20174;DHT22;10246;50.620;7.232;2023-01-28T13:27:11;3.60;1.00
20174;DHT22;10246;50.620;7.232;2023-01-28T13:29:47;3.60;1.00
20174;DHT22;10246;50.620;7.232;2023-01-28T13:32:32;3.60;1.00
20174;DHT22;10246;50.620;7.232;2023-01-28T13:37:49;3.60;1.00
20174;DHT22;10246;50.620;7.232;2023-01-28T13:40:23;3.70;1.00
20174;DHT22;10246;50.620;7.232;2023-01-28T13:42:59;3.70;1.00
20174;DHT22;10246;50.620;7.232;2023-01-28T13:45:34;3.60;1.00
20174;DHT22;10246;50.620;7.232;2023-01-28T13:48:19;3.50;1.00
20174;DHT22;10246;50.620;7.232;2023-01-28T13:50:51;3.50;1.00
20174;DHT22;10246;50.620;7.232;2023-01-28T13:53:24;3.50;1.00
20174;DHT22;10246;50.620;7.232;2023-01-28T13:56:07;3.50;1.00
20174;DHT22;10246;50.620;7.232;2023-01-28T14:02:00;3.60;1.00
20174;DHT22;10246;50.620;7.232;2023-01-28T14:17:23;3.80;1.00
20174;DHT22;10246;50.620;7.232;2023-01-28T14:19:57;3.80;1.00
20174;DHT22;10246;50.620;7.232;2023-01-28T14:22:26;3.70;1.00
20174;DHT22;10246;50.620;7.232;2023-01-28T14:24:58;3.70;1.00
20174;DHT22;10246;50.620;7.232;2023-01-28T14:27:44;3.70;1.00
20174;DHT22;10246;50.620;7.232;2023-01-28T14:30:18;3.80;1.00
20174;DHT22;10246;50.620;7.232;2023-01-28T14:32:51;3.90;1.00
20174;DHT22;10246;50.620;7.232;2023-01-28T14:35:33;3.90;1.00
20174;DHT22;10246;50.620;7.232;2023-01-28T14:38:06;3.80;1.00
20174;DHT22;10246;50.620;7.232;2023-01-28T14:40:35;3.70;1.00
20174;DHT22;10246;50.620;7.232;2023-01-28T14:43:05;3.60;1.00
20174;DHT22;10246;50.620;7.232;2023-01-28T14:45:56;3.60;1.00
20174;DHT22;10246;50.620;7.232;2023-01-28T14:48:39;3.60;1.00
20174;DHT22;10246;50.620;7.232;2023-01-28T14:51:26;3.70;1.00
20174;DHT22;10246;50.620;7.232;2023-01-28T14:54:20;3.70;1.00
20174;DHT22;10246;50.620;7.232;2023-01-28T14:57:03;3.80;1.00
20174;DHT22;10246;50.620;7.232;2023-01-28T14:59:42;3.80;1.00
20174;DHT22;10246;50.620;7.232;2023-01-28T15:02:17;3.70;1.00
20174;DHT22;10246;50.620;7.232;2023-01-28T15:04:48;3.70;1.00
20174;DHT22;10246;50.620;7.232;2023-01-28T15:07:17;3.60;1.00
20174;DHT22;10246;50.620;7.232;2023-01-28T15:09:44;3.60;1.00
20174;DHT22;10246;50.620;7.232;2023-01-28T15:12:15;3.60;1.00
20174;DHT22;10246;50.620;7.232;2023-01-28T15:14:43;3.60;1.00
20174;DHT22;10246;50.620;7.232;2023-01-28T15:17:23;3.60;1.00
20174;DHT22;10246;50.620;7.232;2023-01-28T15:19:56;3.60;1.00
20174;DHT22;10246;50.620;7.232;2023-01-28T15:22:36;3.70;1.00
20174;DHT22;10246;50.620;7.232;2023-01-28T15:25:15;3.70;1.00
20174;DHT22;10246;50.620;7.232;2023-01-28T15:27:43;3.60;1.00
20174;DHT22;10246;50.620;7.232;2023-01-28T15:30:29;3.60;1.00
20174;DHT22;10246;50.620;7.232;2023-01-28T15:33:05;3.60;1.00
20174;DHT22;10246;50.620;7.232;2023-01-28T15:35:35;3.60;1.00
20174;DHT22;10246;50.620;7.232;2023-01-28T15:38:02;3.50;1.00
20174;DHT22;10246;50.620;7.232;2023-01-28T15:40:38;3.60;1.00
20174;DHT22;10246;50.620;7.232;2023-01-28T15:43:16;3.50;1.00
20174;DHT22;10246;50.620;7.232;2023-01-28T15:45:45;3.50;1.00
20174;DHT22;10246;50.620;7.232;2023-01-28T15:48:13;3.40;1.00
20174;DHT22;10246;50.620;7.232;2023-01-28T15:50:46;3.40;1.00
20174;DHT22;10246;50.620;7.232;2023-01-28T15:53:18;3.50;1.00
20174;DHT22;10246;50.620;7.232;2023-01-28T15:55:45;3.50;1.00
20174;DHT22;10246;50.620;7.232;2023-01-28T15:58:20;3.50;1.00
20174;DHT22;10246;50.620;7.232;2023-01-28T16:01:02;3.50;1.00
20174;DHT22;10246;50.620;7.232;2023-01-28T16:03:29;3.40;1.00
20174;DHT22;10246;50.620;7.232;2023-01-28T16:06:00;3.30;1.00
20174;DHT22;10246;50.620;7.232;2023-01-28T16:08:41;3.20;1.00
20174;DHT22;10246;50.620;7.232;2023-01-28T16:11:19;3.20;1.00
20174;DHT22;10246;50.620;7.232;2023-01-28T16:13:53;3.20;1.00
20174;DHT22;10246;50.620;7.232;2023-01-28T16:16:30;3.20;1.00
20174;DHT22;10246;50.620;7.232;2023-01-28T16:19:00;3.20;1.00
20174;DHT22;10246;50.620;7.232;2023-01-28T16:21:35;3.20;1.00
20174;DHT22;10246;50.620;7.232;2023-01-28T16:24:21;3.10;1.00
20174;DHT22;10246;50.620;7.232;2023-01-28T16:26:58;3.20;1.00
20174;DHT22;10246;50.620;7.232;2023-01-28T16:29:28;3.20;1.00
20174;DHT22;10246;50.620;7.232;2023-01-28T16:31:56;3.20;1.00
20174;DHT22;10246;50.620;7.232;2023-01-28T16:34:25;3.10;1.00
20174;DHT22;10246;50.620;7.232;2023-01-28T16:36:57;3.00;1.00
20174;DHT22;10246;50.620;7.232;2023-01-28T16:39:27;3.00;1.00
20174;DHT22;10246;50.620;7.232;2023-01-28T16:41:54;2.90;1.00
20174;DHT22;10246;50.620;7.232;2023-01-28T16:44:22;2.80;1.00
20174;DHT22;10246;50.620;7.232;2023-01-28T16:46:49;2.80;1.00
20174;DHT22;10246;50.620;7.232;2023-01-28T16:49:16;2.70;1.00
20174;DHT22;10246;50.620;7.232;2023-01-28T16:51:45;2.70;1.00
20174;DHT22;10246;50.620;7.232;2023-01-28T16:54:17;2.60;1.00